Terminal Aerodrome Forecast
Issued by NWS

Home | Current Version | Previous Version | Text Only | Print | Product List | Glossary On
Versions: 1 2 3 4 5 6 7 8 9 10 11 12 13 14 15 16 17
000
FTUS41 KGYX 260520
TAFRKD
TAF
KRKD 260520Z 2606/2706 30006KT P6SM BKN050
     FM261700 18007KT P6SM BKN040 PROB30 2623/2704 5SM -SHRA BKN025
      AMD LTD TO CLD VIS AND WIND=

USA.gov is the U.S. government's official web portal to all federal, state and local government web resources and services.